Akk, Virginia
Current Conditions -  °F | °C
As of 9:15 AM on Thursday 18 Dec 2014 (Local Time) from KFYJ Reporting Station
Clear Clear  
Wind Chill: 34°   Ceiling: Unl
Heat Index: 39°   Visibility: 10mi
Dew Point: 24°   Wind: 7mph
Humidity: 55%   Direction: 330°NNW
Pressure: 30.2"   Gusts: NA
Location:  37.4383°N, 76.5764°W
Report Text: KFYJ 181415Z AUTO 33006KT 10SM CLR 04/M04 A3020 RMK AO2 T00411042
Loading
Personal Weather Stations






























Interactive Weather Map New forecast layout! Learn more

10-Day Weather Forecast

Advertisements
Track Severe Weather on mobile